»·PEaware :: JBU110 KSAN-KLAX

JBU110 :: KSAN-KLAX

FLIGHT INFORMATION

Flight Status: Arrived
Operator:
JetBlue Airways
More flights by this operator :: More flights under this callsign
Pilot: Nathan S. (27418)
Aircraft: AIRBUS A320
(A320)
More flights by this aircraft type
Origin: KSAN San Diego Intl-Lindbergh
United States
Destination: KLAX Los Angeles Intl
United States
More flights between these airports :: More routes between these airports
Route: +CWARD2 SLI
File this flight plan on PilotEdge
Remarks: JetBlue110
Altitude:
(Current/Filed)
14,000ft
Speed:
(Current/Filed)
356kts
Departed: 04-Jan-20 09:12 PM
Arrived: 04-Jan-20 09:37 PM
Distance/Time
Traveled:
95nm/0:25
Distance/Time
To Go:
Arrived

Flight Plot

Page will automatically refresh every two minutes.

Flight plan parsing failed; only flown route is shown


Map Options




Map Legend


Flown Route
Filed Route
Departure Airport
Arrival Airport
Navaid (VOR, NDB)
Fix

Horizontal Profiles

Position Reports

Time Latitude Longitude Heading Altitude Ground
Speed
04-Jan-20 20:46 32.734178 -117.203315 267 29ft 0kts
04-Jan-20 20:47 32.734178 -117.203315 267 29ft 0kts
04-Jan-20 20:48 32.734178 -117.203315 267 29ft 0kts
04-Jan-20 20:49 32.734178 -117.203315 267 29ft 0kts
04-Jan-20 20:50 32.734178 -117.203315 267 29ft 0kts
04-Jan-20 20:51 32.734178 -117.203315 267 29ft 0kts
04-Jan-20 20:52 32.734178 -117.203315 267 29ft 0kts
04-Jan-20 20:53 32.734178 -117.203315 267 29ft 0kts
04-Jan-20 20:54 32.734178 -117.203315 267 29ft 0kts
04-Jan-20 20:55 32.734178 -117.203315 267 29ft 0kts
04-Jan-20 20:56 32.734178 -117.203315 267 29ft 0kts
04-Jan-20 20:57 32.734178 -117.203315 267 29ft 0kts
04-Jan-20 20:58 32.734178 -117.203315 267 29ft 0kts
04-Jan-20 20:59 32.734178 -117.203315 267 29ft 0kts
04-Jan-20 21:00 32.734178 -117.203315 267 29ft 0kts
04-Jan-20 21:01 32.734186 -117.202737 308 29ft 2kts
04-Jan-20 21:02 32.734146 -117.202683 15 29ft 0kts
04-Jan-20 21:03 32.734146 -117.202683 15 29ft 0kts
04-Jan-20 21:04 32.734147 -117.202683 15 29ft 0kts
04-Jan-20 21:05 32.735202 -117.200714 106 29ft 18kts
04-Jan-20 21:06 32.733546 -117.193868 105 29ft 25kts
04-Jan-20 21:07 32.731386 -117.184956 106 29ft 28kts
04-Jan-20 21:08 32.729513 -117.176821 76 29ft 8kts
04-Jan-20 21:09 32.729528 -117.176749 75 29ft 1kts
04-Jan-20 21:10 32.730546 -117.177236 285 29ft 21kts
04-Jan-20 21:11 32.741649 -117.220045 300 1434ft 182kts
04-Jan-20 21:12 32.775755 -117.276049 303 3435ft 238kts
04-Jan-20 21:13 32.817168 -117.345972 308 6245ft 269kts
04-Jan-20 21:14 32.864044 -117.418238 307 9224ft 283kts
04-Jan-20 21:16 32.912362 -117.493279 307 9979ft 285kts
04-Jan-20 21:17 32.965125 -117.575490 307 9986ft 339kts
04-Jan-20 21:18 33.022147 -117.664488 307 9988ft 339kts
04-Jan-20 21:19 33.082949 -117.750158 318 9994ft 339kts
04-Jan-20 21:20 33.155657 -117.822555 318 9994ft 339kts
04-Jan-20 21:21 33.237414 -117.874470 348 9997ft 342kts
04-Jan-20 21:22 33.330832 -117.895557 346 9995ft 341kts
04-Jan-20 21:23 33.422956 -117.922925 342 9995ft 341kts
04-Jan-20 21:24 33.513398 -117.956229 342 9475ft 338kts
04-Jan-20 21:25 33.603391 -117.988934 342 8575ft 335kts
04-Jan-20 21:26 33.692010 -118.021255 342 7677ft 330kts
04-Jan-20 21:27 33.778853 -118.053148 341 6969ft 310kts
04-Jan-20 21:28 33.849541 -118.095094 332 6983ft 276kts
04-Jan-20 21:29 33.908887 -118.131075 333 6223ft 259kts
04-Jan-20 21:30 33.970356 -118.168888 346 5284ft 236kts
04-Jan-20 21:31 34.033395 -118.181117 349 4121ft 226kts
04-Jan-20 21:32 34.051101 -118.232352 225 3998ft 193kts
04-Jan-20 21:33 34.005790 -118.267670 211 4004ft 193kts
04-Jan-20 21:34 33.959696 -118.302127 211 2661ft 198kts
04-Jan-20 21:35 33.940196 -118.358721 260 911ft 197kts
04-Jan-20 21:35 33.935315 -118.402787 262 140ft 123kts
04-Jan-20 21:37 33.935454 -118.412032 296 140ft 1kts
04-Jan-20 21:38 33.936915 -118.412845 352 140ft 11kts
04-Jan-20 21:38 33.937850 -118.411665 9 140ft 5kts

Navigation Log

Ident Type
Flight plan parsing failed, navigation log unavailable